Flight Track Log - Related Links

Times and Time Zones

All times are in EDT time to prevent confusion due to time zone crossing. See the ELO3908 flight status page for this flight to view local times or setup timezone preferences in your user account.

Time Position Orientation Groundspeed Altitude Reporting Facility
EDT Latitude Longitude Course Direction KTS MPH feet Rate Location/Type
Tue 10:36:00 AM 51.1214 20.3616 19° North  Level Estimated
Tue 10:37:00 AM 51.1959 20.4038 20° North  Level Estimated
Tue 10:38:00 AM 51.2703 20.4461 20° North  Level Estimated
Tue 10:39:00 AM 51.3447 20.4886 20° North  Level Estimated
Tue 10:40:00 AM 51.4191 20.5312 20° North  Level Estimated
Tue 10:41:00 AM 51.4935 20.5739 20° North  Level Estimated
Tue 10:42:00 AM 51.5678 20.6168 20° North  Level Estimated
Tue 10:43:00 AM 51.6422 20.6598 20° North  Level Estimated
Tue 10:44:00 AM 51.7165 20.7030 20° North  Level Estimated
Tue 10:45:00 AM 51.7908 20.7463 20° North  Level Estimated
Tue 10:46:00 AM 51.8651 20.7897 20° North  Level Estimated
Tue 10:47:00 AM 51.9394 20.8333 20° North  Level Estimated
Tue 10:48:00 AM 52.0136 20.8771 20° North  Level Estimated
Tue 10:49:00 AM 52.0879 20.9209 20° North  Level Estimated
Tue 10:50:00 AM 52.1621 20.9650 20° North  Level Estimated
Tue 10:51:00 AM 52.1657 20.9671 20° North  Level Estimated
Tue 10:52:00 AM 52.1657 20.9671 90° East  Level Estimated
Tue 10:53:00 AM 52.1657 20.9671 90° East  Level Estimated
Tue 10:54:00 AM 52.1657 20.9671 90° East  Level Estimated
Tue 10:55:00 AM 52.1657 20.9671 90° East  Level Estimated
Tue 10:56:00 AM 52.1657 20.9671 90° East  Level Estimated
Tue 10:57:00 AM 52.1657 20.9671 90° East  Level Estimated
Tue 10:58:00 AM 52.1657 20.9671 90° East  Level Estimated
Tue 10:59:00 AM 52.1657 20.9671 90° East  Level Estimated
Tue 11:00:00 AM 52.1657 20.9671 90° East  Level Estimated
Tue 11:01:00 AM 52.1657 20.9671 90° East  Level Estimated
Tue 11:02:00 AM 52.1657 20.9671 90° East  Level Estimated

Login

Don't have an account? Register now (free) for customized features, flight alerts, and more!